createdAt,value
2019-04-25T00:01:52.322Z,68.42
2019-04-25T00:04:48.008Z,69.65
2019-04-25T00:07:43.962Z,69.08
2019-04-25T00:10:42.562Z,68.48
2019-04-25T00:13:38.309Z,68.77
2019-04-25T00:16:36.803Z,68.77
2019-04-25T00:22:06.410Z,69.36
2019-04-25T00:24:47.903Z,69.15
2019-04-25T00:27:19.792Z,69.86
2019-04-25T00:29:51.631Z,69.99
2019-04-25T00:32:22.859Z,70.03
2019-04-25T00:34:53.075Z,70.49
2019-04-25T00:37:24.906Z,69.78
2019-04-25T00:39:55.243Z,70.14
2019-04-25T00:42:26.338Z,70.90
2019-04-25T00:44:58.199Z,71.95
2019-04-25T00:47:28.366Z,73.43
2019-04-25T00:49:58.628Z,73.56
2019-04-25T00:52:31.321Z,75.04
2019-04-25T00:55:01.997Z,75.61
2019-04-25T00:57:32.385Z,76.06
2019-04-25T01:00:18.168Z,76.25
2019-04-25T01:02:52.497Z,76.15
2019-04-25T01:05:22.433Z,76.43
2019-04-25T01:07:53.570Z,76.88
2019-04-25T01:10:24.780Z,76.79
2019-04-25T01:12:55.762Z,77.28
2019-04-25T01:15:26.835Z,77.36
2019-04-25T01:17:57.143Z,77.40
2019-04-25T01:20:27.320Z,77.38
2019-04-25T01:22:57.833Z,77.31
2019-04-25T01:25:38.636Z,77.06
2019-04-25T01:27:59.969Z,76.95
2019-04-25T01:30:30.479Z,77.87
2019-04-25T01:33:01.517Z,78.12
2019-04-25T01:35:56.916Z,78.12
2019-04-25T01:38:33.535Z,78.23
2019-04-25T01:41:21.738Z,78.60
2019-04-25T01:43:58.357Z,78.79
2019-04-25T01:46:28.045Z,79.18
2019-04-25T01:48:58.685Z,78.90
2019-04-25T01:51:29.043Z,80.41
2019-04-25T01:53:59.273Z,80.20
2019-04-25T01:56:29.432Z,80.06
2019-04-25T01:58:59.667Z,79.87
2019-04-25T02:01:30.343Z,79.72
2019-04-25T02:04:00.614Z,80.29
2019-04-25T02:06:30.944Z,79.85
2019-04-25T02:09:01.318Z,80.13
2019-04-25T02:11:54.718Z,80.59
2019-04-25T02:14:24.993Z,80.91
2019-04-25T02:16:56.272Z,80.41
2019-04-25T02:19:27.405Z,80.50
2019-04-25T02:21:57.876Z,80.38
2019-04-25T02:24:28.097Z,79.81
2019-04-25T02:26:58.733Z,79.65
2019-04-25T02:29:29.649Z,79.75
2019-04-25T02:32:02.848Z,79.29
2019-04-25T02:34:34.376Z,78.89
2019-04-25T02:37:08.886Z,78.66
2019-04-25T02:39:37.460Z,79.21
2019-04-25T02:42:08.718Z,79.85
2019-04-25T02:44:44.502Z,79.56
2019-04-25T02:47:24.877Z,80.46
2019-04-25T02:50:11.940Z,80.44
2019-04-25T02:52:50.479Z,81.22
2019-04-25T02:55:30.784Z,81.60
2019-04-25T02:57:54.211Z,82.02
2019-04-25T03:00:27.422Z,82.25
2019-04-25T03:02:59.165Z,82.05
2019-04-25T03:05:29.934Z,81.62
2019-04-25T03:08:01.454Z,81.80
2019-04-25T03:10:34.775Z,82.14
2019-04-25T03:13:07.015Z,81.58
2019-04-25T03:15:36.522Z,81.65
2019-04-25T03:18:11.166Z,82.00
2019-04-25T03:20:48.641Z,82.81
2019-04-25T03:23:42.238Z,83.14
2019-04-25T03:26:10.618Z,83.46
2019-04-25T03:28:41.138Z,84.50
2019-04-25T03:31:18.593Z,84.43
2019-04-25T03:33:45.799Z,84.93
2019-04-25T03:36:17.006Z,84.47
2019-04-25T03:38:47.304Z,84.75
2019-04-25T03:41:17.649Z,85.00
2019-04-25T03:43:47.874Z,84.63
2019-04-25T03:46:18.148Z,84.14
2019-04-25T03:48:48.527Z,84.61
2019-04-25T03:51:18.784Z,84.71
2019-04-25T03:53:49.078Z,84.89
2019-04-25T03:56:19.420Z,84.60
2019-04-25T03:58:50.522Z,84.12
2019-04-25T04:01:20.853Z,85.30
2019-04-25T04:03:53.696Z,85.88
2019-04-25T04:06:24.560Z,85.70
2019-04-25T04:08:54.892Z,86.08
2019-04-25T04:11:25.146Z,85.89
2019-04-25T04:13:55.623Z,85.78
2019-04-25T04:16:29.719Z,85.15
2019-04-25T04:19:00.021Z,85.27
